Time;durP1;ratioP1;P1;durP2;ratioP2;P2;SDS_P1;SDS_P2;PMS_P1;PMS_P2;Temp;Humidity;BMP_temperature;BMP_pressure;BME280_temperature;BME280_humidity;BME280_pressure;Samples;Min_cycle;Max_cycle;Signal;HPM_P1;HPM_P2
2024/03/24 00:01:56;;;;;;;3.97;2.03;;;6.60;99.90;;;;;;5076537;28;20106;-91
2024/03/24 00:04:21;;;;;;;4.85;2.30;;;6.60;99.90;;;;;;5060103;28;20356;-92
2024/03/24 00:06:48;;;;;;;3.75;2.00;;;6.60;99.90;;;;;;5061992;28;20028;-90
2024/03/24 00:09:13;;;;;;;3.42;1.92;;;6.60;99.90;;;;;;5063456;28;20062;-91
2024/03/24 00:11:42;;;;;;;3.83;2.08;;;6.60;99.90;;;;;;5067121;28;20039;-92
2024/03/24 00:14:08;;;;;;;5.78;2.35;;;6.70;99.90;;;;;;5098443;28;20024;-92
2024/03/24 00:16:34;;;;;;;4.47;2.58;;;6.70;99.90;;;;;;5081198;28;20095;-93
2024/03/24 00:19:02;;;;;;;3.20;2.10;;;6.80;99.90;;;;;;5064984;28;20091;-93
2024/03/24 00:21:28;;;;;;;3.53;2.22;;;6.80;99.90;;;;;;5086689;28;20452;-92
2024/03/24 00:23:53;;;;;;;4.40;2.17;;;6.80;99.90;;;;;;5081476;28;20043;-88
2024/03/24 00:26:19;;;;;;;6.07;2.92;;;6.80;99.90;;;;;;5103410;28;20020;-93
2024/03/24 00:28:45;;;;;;;3.08;2.03;;;6.80;99.90;;;;;;5099596;28;20028;-92
2024/03/24 00:31:11;;;;;;;6.65;2.60;;;6.80;99.90;;;;;;5083080;28;20103;-93
2024/03/24 00:33:37;;;;;;;3.40;2.38;;;6.90;99.90;;;;;;5067815;28;20030;-93
2024/03/24 00:36:02;;;;;;;6.25;2.97;;;6.90;99.90;;;;;;5063805;28;20058;-92
2024/03/24 00:38:28;;;;;;;4.03;2.15;;;6.90;99.90;;;;;;5081246;28;20111;-94
2024/03/24 00:40:54;;;;;;;4.03;2.50;;;6.90;99.90;;;;;;5065448;28;20423;-92
2024/03/24 00:43:20;;;;;;;4.85;2.45;;;7.00;99.90;;;;;;5099049;28;20059;-93
2024/03/24 00:45:48;;;;;;;5.57;2.72;;;7.00;99.90;;;;;;5080951;28;20024;-92
2024/03/24 00:48:14;;;;;;;4.53;2.42;;;7.00;99.90;;;;;;5080661;28;20028;-92
2024/03/24 00:50:40;;;;;;;4.85;2.95;;;7.00;99.90;;;;;;5065529;28;20039;-92
2024/03/24 00:53:05;;;;;;;5.97;2.80;;;7.00;99.90;;;;;;5085701;28;20074;-91
2024/03/24 00:55:31;;;;;;;4.85;2.72;;;6.90;99.90;;;;;;5085373;28;20024;-93
2024/03/24 00:57:57;;;;;;;6.13;2.70;;;6.90;99.90;;;;;;5090634;28;20052;-92
2024/03/24 01:00:23;;;;;;;8.18;2.97;;;7.00;99.90;;;;;;5088427;28;20024;-92
2024/03/24 01:02:52;;;;;;;5.47;3.03;;;7.00;99.90;;;;;;5094169;28;20020;-93
2024/03/24 01:05:18;;;;;;;6.30;3.10;;;7.00;99.90;;;;;;5094871;28;20016;-93
2024/03/24 01:07:48;;;;;;;7.07;3.28;;;6.90;99.90;;;;;;5090212;28;20051;-94
2024/03/24 01:10:13;;;;;;;5.35;3.00;;;6.90;99.90;;;;;;5084169;28;20110;-92
2024/03/24 01:12:42;;;;;;;3.95;2.70;;;7.00;99.90;;;;;;5070048;28;20091;-93
2024/03/24 01:15:10;;;;;;;4.43;3.10;;;6.90;99.90;;;;;;5064748;28;20089;-93
2024/03/24 01:17:43;;;;;;;7.80;3.35;;;6.90;99.90;;;;;;5208166;22;20010;-94
2024/03/24 01:20:16;;;;;;;6.03;3.80;;;6.90;99.90;;;;;;5092762;28;20056;-94
2024/03/24 01:22:45;;;;;;;5.43;2.97;;;6.90;99.90;;;;;;5074056;28;20100;-93
2024/03/24 01:25:13;;;;;;;6.82;3.53;;;6.90;99.90;;;;;;5075598;28;20050;-90
2024/03/24 01:28:12;;;;;;;;;;;;;;;;;;;;;
2024/03/24 01:31:18;;;;;;;;;;;;;;;;;;;;;
2024/03/24 01:33:52;;;;;;;5.13;2.92;;;6.80;99.90;;;;;;5053217;28;20069;-93
2024/03/24 01:36:23;;;;;;;5.68;3.45;;;6.90;99.90;;;;;;5039833;28;20511;-92
2024/03/24 01:38:53;;;;;;;4.97;3.33;;;6.90;99.90;;;;;;5056199;28;20013;-93
2024/03/24 01:41:26;;;;;;;4.50;3.20;;;6.90;99.90;;;;;;5039012;28;20525;-93
2024/03/24 01:44:02;;;;;;;7.05;3.20;;;6.90;99.90;;;;;;5038606;28;20002;-93
2024/03/24 01:46:33;;;;;;;4.55;3.40;;;7.00;99.90;;;;;;5042041;28;20048;-92
2024/03/24 01:49:11;;;;;;;4.90;3.10;;;7.00;99.90;;;;;;5057158;28;20021;-84
2024/03/24 01:51:42;;;;;;;6.20;3.72;;;6.90;99.90;;;;;;5041538;28;20075;-92
2024/03/24 01:54:13;;;;;;;6.60;3.75;;;6.90;99.90;;;;;;5042086;28;20093;-89
2024/03/24 01:56:43;;;;;;;5.47;3.83;;;6.90;99.90;;;;;;5040946;28;20025;-92
2024/03/24 01:59:14;;;;;;;4.68;3.63;;;6.90;99.90;;;;;;5038695;28;20017;-92
2024/03/24 02:01:52;;;;;;;4.47;3.30;;;7.00;99.90;;;;;;5032695;28;20032;-93
2024/03/24 02:04:23;;;;;;;5.22;3.88;;;7.00;99.90;;;;;;5051146;28;20029;-93
2024/03/24 02:06:52;;;;;;;5.72;3.80;;;7.00;99.90;;;;;;5015020;28;20056;-92
2024/03/24 02:09:17;;;;;;;7.28;3.85;;;7.00;99.90;;;;;;5034169;28;20053;-91
2024/03/24 02:11:53;;;;;;;6.82;4.47;;;7.00;99.90;;;;;;5047008;28;20095;-93
2024/03/24 02:14:22;;;;;;;6.63;3.72;;;7.10;99.90;;;;;;5025872;28;20040;-93
2024/03/24 02:16:50;;;;;;;7.32;4.20;;;7.00;99.90;;;;;;5029869;28;20056;-92
2024/03/24 02:19:16;;;;;;;5.50;3.33;;;7.00;99.90;;;;;;5017379;28;20025;-93
2024/03/24 02:21:45;;;;;;;5.55;3.45;;;7.00;99.90;;;;;;5038315;28;20060;-93
2024/03/24 02:24:11;;;;;;;9.07;3.95;;;7.00;99.90;;;;;;5056089;28;20056;-90
2024/03/24 02:26:36;;;;;;;6.43;3.83;;;7.00;99.90;;;;;;5054094;28;20021;-92
2024/03/24 02:29:02;;;;;;;7.00;3.45;;;7.10;99.90;;;;;;5047746;28;20085;-92
2024/03/24 02:31:31;;;;;;;4.40;3.40;;;7.00;99.90;;;;;;5028691;28;20028;-93
2024/03/24 02:34:02;;;;;;;5.60;3.38;;;7.10;99.90;;;;;;5030075;28;20041;-92
2024/03/24 02:36:28;;;;;;;4.70;3.25;;;7.10;99.90;;;;;;5036378;28;20017;-91
2024/03/24 02:38:54;;;;;;;8.30;3.95;;;7.20;99.90;;;;;;5038255;28;20037;-93
2024/03/24 02:41:20;;;;;;;5.15;3.17;;;7.10;99.90;;;;;;5034630;28;20001;-93
2024/03/24 02:43:46;;;;;;;4.40;3.30;;;7.20;99.90;;;;;;5012355;28;20035;-93
2024/03/24 02:46:12;;;;;;;5.57;3.53;;;7.20;99.90;;;;;;5033810;28;20450;-92
2024/03/24 02:48:37;;;;;;;5.65;4.10;;;7.20;99.90;;;;;;5018009;28;20040;-91
2024/03/24 02:51:03;;;;;;;5.80;3.92;;;7.30;99.90;;;;;;5034401;28;20028;-92
2024/03/24 02:53:29;;;;;;;6.65;3.55;;;7.30;99.90;;;;;;5020152;28;20017;-91
2024/03/24 02:55:55;;;;;;;7.00;4.45;;;7.30;99.90;;;;;;5039101;28;20025;-92
2024/03/24 02:58:20;;;;;;;7.63;4.47;;;7.30;99.90;;;;;;5038576;28;20033;-92
2024/03/24 03:00:46;;;;;;;6.28;4.45;;;7.20;99.90;;;;;;5031147;28;20472;-92
2024/03/24 03:03:12;;;;;;;8.88;4.20;;;7.20;99.90;;;;;;5044374;28;20039;-91
2024/03/24 03:05:38;;;;;;;7.72;4.28;;;7.20;99.90;;;;;;5034543;28;20025;-92
2024/03/24 03:08:04;;;;;;;7.63;4.22;;;7.30;99.90;;;;;;5036228;28;20367;-92
2024/03/24 03:10:31;;;;;;;6.00;3.72;;;7.30;99.90;;;;;;5034098;28;20045;-93
2024/03/24 03:13:00;;;;;;;8.18;4.93;;;7.30;99.90;;;;;;5035929;28;20010;-93
2024/03/24 03:15:26;;;;;;;5.93;4.28;;;7.20;99.90;;;;;;5040967;28;20077;-91
2024/03/24 03:17:52;;;;;;;7.80;4.05;;;7.20;99.90;;;;;;5040588;28;20040;-92
2024/03/24 03:20:18;;;;;;;6.53;4.40;;;7.30;99.90;;;;;;5040468;28;20026;-92
2024/03/24 03:22:44;;;;;;;6.53;4.00;;;7.30;99.90;;;;;;5032543;28;20101;-92
2024/03/24 03:25:10;;;;;;;8.15;4.13;;;7.30;99.90;;;;;;5010808;28;20033;-93
2024/03/24 03:27:36;;;;;;;4.80;3.40;;;7.30;99.90;;;;;;5027587;28;20029;-93
2024/03/24 03:30:03;;;;;;;6.50;4.53;;;7.30;99.90;;;;;;5046344;28;20032;-93
2024/03/24 03:32:31;;;;;;;5.88;3.63;;;7.40;99.90;;;;;;5028117;28;20113;-93
2024/03/24 03:34:57;;;;;;;9.05;5.18;;;7.30;99.90;;;;;;5029190;28;20100;-93
2024/03/24 03:37:23;;;;;;;6.55;4.57;;;7.30;99.90;;;;;;5043109;28;20029;-93
2024/03/24 03:39:48;;;;;;;7.72;4.88;;;7.40;99.90;;;;;;5025264;28;20091;-93
2024/03/24 03:42:15;;;;;;;7.65;4.35;;;7.40;99.90;;;;;;5036205;28;20029;-92
2024/03/24 03:44:41;;;;;;;6.80;4.20;;;7.40;99.90;;;;;;5019700;28;20022;-92
2024/03/24 03:47:07;;;;;;;8.15;5.03;;;7.40;99.90;;;;;;5038320;28;20083;-93
2024/03/24 03:49:33;;;;;;;7.78;4.35;;;7.40;99.90;;;;;;5024749;28;20116;-93
2024/03/24 03:52:02;;;;;;;7.47;4.47;;;7.40;99.90;;;;;;5027940;28;20036;-92
2024/03/24 03:54:27;;;;;;;8.23;4.80;;;7.40;99.90;;;;;;5027739;28;20099;-91
2024/03/24 03:56:53;;;;;;;5.55;3.85;;;7.40;99.90;;;;;;5041493;28;20025;-92
2024/03/24 03:59:19;;;;;;;6.82;3.80;;;7.40;99.90;;;;;;5009256;28;20116;-92
2024/03/24 04:01:45;;;;;;;8.05;4.40;;;7.50;99.90;;;;;;5022193;28;20044;-92
2024/03/24 04:04:11;;;;;;;8.65;4.35;;;7.50;99.90;;;;;;5038465;28;20021;-92
2024/03/24 04:06:36;;;;;;;9.68;4.78;;;7.50;99.90;;;;;;5020968;28;20354;-92
2024/03/24 04:09:03;;;;;;;6.38;3.50;;;7.50;99.90;;;;;;5027620;28;20029;-93
2024/03/24 04:11:29;;;;;;;5.88;2.58;;;7.40;99.90;;;;;;5024075;28;20025;-93
2024/03/24 04:13:55;;;;;;;3.15;1.70;;;7.20;99.90;;;;;;5043373;28;20033;-92
2024/03/24 04:16:21;;;;;;;2.97;1.10;;;7.10;99.90;;;;;;5026660;28;20108;-92
2024/03/24 04:18:50;;;;;;;3.00;1.02;;;7.00;99.90;;;;;;5025056;28;20052;-93
2024/03/24 04:21:17;;;;;;;1.88;0.70;;;6.90;99.90;;;;;;5024606;28;20094;-92
2024/03/24 04:23:43;;;;;;;2.03;0.77;;;6.90;99.90;;;;;;5027732;28;20069;-93
2024/03/24 04:45:41;;;;;;;2.30;1.10;;;6.80;99.90;;;;;;5551688;22;20093;-83
2024/03/24 04:48:21;;;;;;;1.05;0.80;;;6.80;99.90;;;;;;5718100;22;20027;-81
2024/03/24 04:56:05;;;;;;;2.25;1.00;;;6.80;99.90;;;;;;6026114;22;20016;-90
2024/03/24 06:15:13;;;;;;;;;;;;;;;;;;;;;
2024/03/24 06:18:04;;;;;;;4.35;1.58;;;6.90;99.90;;;;;;6014927;23;21213;31
2024/03/24 06:23:26;;;;;;;4.38;1.40;;;6.80;99.90;;;;;;5699306;23;20039;-82
2024/03/24 06:45:49;;;;;;;3.97;1.58;;;6.40;99.90;;;;;;5227437;23;20031;-90
2024/03/24 06:50:51;;;;;;;3.95;1.67;;;6.50;99.90;;;;;;5155135;23;20508;-90
2024/03/24 06:53:17;;;;;;;5.68;1.95;;;6.50;99.90;;;;;;4934744;29;20039;-91
2024/03/24 06:55:43;;;;;;;3.60;1.67;;;6.50;99.90;;;;;;4937138;28;20059;-91
2024/03/24 06:58:08;;;;;;;3.63;1.58;;;6.60;99.90;;;;;;4909913;29;20039;-93
2024/03/24 07:00:37;;;;;;;3.55;1.55;;;6.60;99.90;;;;;;4913777;29;20031;-93
2024/03/24 07:03:03;;;;;;;3.05;1.48;;;6.70;99.90;;;;;;4942620;29;20062;-94
2024/03/24 07:05:29;;;;;;;3.75;1.48;;;6.70;99.90;;;;;;4930293;29;20032;-92
2024/03/24 07:07:54;;;;;;;3.75;1.58;;;6.80;99.90;;;;;;4935589;29;20074;-92
2024/03/24 07:10:44;;;;;;;;;;;;;;;;;;;;;
2024/03/24 07:13:18;;;;;;;3.28;1.30;;;6.90;99.90;;;;;;5009217;23;20059;-90
2024/03/24 07:15:47;;;;;;;5.10;2.15;;;6.90;99.90;;;;;;4972663;29;20027;-93
2024/03/24 07:18:15;;;;;;;4.25;2.00;;;7.00;99.90;;;;;;4937967;29;20074;-93
2024/03/24 07:20:44;;;;;;;3.90;1.27;;;7.00;99.90;;;;;;5003275;23;20055;-94
2024/03/24 07:23:15;;;;;;;3.33;1.80;;;7.10;99.90;;;;;;4964410;28;20031;-92
2024/03/24 07:25:42;;;;;;;4.20;1.73;;;7.10;99.90;;;;;;4988441;23;20047;-92
2024/03/24 07:28:08;;;;;;;2.97;1.58;;;7.20;99.90;;;;;;4985114;28;20019;-92
2024/03/24 07:35:44;;;;;;;4.43;2.05;;;7.30;99.90;;;;;;4983978;23;20076;-89
2024/03/24 07:38:25;;;;;;;4.03;2.17;;;7.30;99.90;;;;;;4949934;29;20041;-91
2024/03/24 07:41:06;;;;;;;;;;;;;;;;;;;;;
2024/03/24 07:46:18;;;;;;;5.80;2.40;;;7.50;99.90;;;;;;5026818;23;20163;-89
2024/03/24 07:48:43;;;;;;;8.38;3.03;;;7.50;99.90;;;;;;4981633;28;20034;-91
2024/03/24 07:51:12;;;;;;;8.98;3.90;;;7.50;99.90;;;;;;4994284;28;20035;-92
2024/03/24 07:53:41;;;;;;;6.75;2.72;;;7.40;99.90;;;;;;4972953;28;20366;-92
2024/03/24 07:56:07;;;;;;;6.95;2.83;;;7.40;99.90;;;;;;4976486;28;20043;-92
2024/03/24 07:58:33;;;;;;;9.48;3.85;;;7.40;99.90;;;;;;4976080;28;20054;-93
2024/03/24 08:01:01;;;;;;;8.00;2.97;;;7.50;99.90;;;;;;4969949;28;20023;-93
2024/03/24 08:03:30;;;;;;;7.32;3.40;;;7.50;99.90;;;;;;4993551;28;20039;-93
2024/03/24 08:05:58;;;;;;;8.20;3.45;;;7.60;99.90;;;;;;4961251;28;20038;-92
2024/03/24 08:08:27;;;;;;;11.90;3.88;;;7.60;99.90;;;;;;4973285;28;20031;-93
2024/03/24 08:10:56;;;;;;;8.50;3.53;;;7.70;99.90;;;;;;4973700;28;20050;-93
2024/03/24 08:13:21;;;;;;;8.93;3.58;;;7.80;99.90;;;;;;4985441;28;20027;-92
2024/03/24 08:15:47;;;;;;;13.05;3.83;;;7.80;99.90;;;;;;4968823;28;20092;-93
2024/03/24 08:18:14;;;;;;;10.25;4.20;;;7.90;99.90;;;;;;4980490;28;20023;-92
2024/03/24 08:20:47;;;;;;;11.13;3.95;;;8.00;99.90;;;;;;4971135;28;20039;-92
2024/03/24 08:23:14;;;;;;;11.77;4.15;;;8.00;99.90;;;;;;4973174;28;20031;-92
2024/03/24 08:26:01;;;;;;;9.73;4.00;;;8.00;99.90;;;;;;4974532;28;20022;-92
2024/03/24 08:28:32;;;;;;;10.50;4.25;;;8.00;99.90;;;;;;4977795;28;20061;-92
2024/03/24 08:31:01;;;;;;;7.93;3.85;;;8.10;99.90;;;;;;4971648;28;20019;-91
2024/03/24 08:33:35;;;;;;;11.73;4.25;;;8.20;99.90;;;;;;4993909;28;20055;-93
2024/03/24 08:36:05;;;;;;;14.45;5.40;;;8.30;99.90;;;;;;4993604;28;20031;-93
2024/03/24 08:38:30;;;;;;;9.65;4.18;;;8.30;99.90;;;;;;4968911;28;20030;-93
2024/03/24 08:40:56;;;;;;;14.32;5.03;;;8.30;99.90;;;;;;4972363;28;20023;-89
2024/03/24 08:43:24;;;;;;;11.73;4.22;;;8.40;99.90;;;;;;5020423;23;20045;-94
2024/03/24 08:45:58;;;;;;;14.15;5.20;;;8.40;99.90;;;;;;4905463;29;20053;-85
2024/03/24 08:48:34;;;;;;;8.90;3.55;;;8.30;99.90;;;;;;4906081;29;20481;-93
2024/03/24 08:51:26;;;;;;;12.70;3.92;;;8.30;99.90;;;;;;4922163;29;20044;-90
2024/03/24 08:56:46;;;;;;;9.27;3.60;;;8.20;99.90;;;;;;5374169;23;20103;-92
2024/03/24 08:59:14;;;;;;;7.95;3.40;;;8.20;99.90;;;;;;4964407;29;20031;-91
2024/03/24 09:02:01;;;;;;;;;;;;;;;;;;;;;
2024/03/24 09:04:37;;;;;;;12.32;3.65;;;8.30;99.90;;;;;;5538185;23;20077;-88
2024/03/24 09:07:13;;;;;;;13.93;3.83;;;8.40;99.90;;;;;;4930637;29;20023;-91
2024/03/24 09:09:44;;;;;;;11.20;3.83;;;8.50;99.90;;;;;;4927215;29;20012;-92
2024/03/24 09:12:12;;;;;;;;;;;8.40;99.90;;;;;;4948505;29;20039;-91
2024/03/24 09:15:12;;;;;;;7.78;3.35;;;8.50;99.90;;;;;;4961738;28;19911;-92
2024/03/24 09:17:42;;;;;;;9.15;3.80;;;8.50;99.90;;;;;;4978339;28;20106;-91
2024/03/24 09:20:19;;;;;;;8.15;3.45;;;8.50;99.90;;;;;;4959860;29;20031;-91
2024/03/24 09:22:48;;;;;;;8.13;2.70;;;8.50;99.90;;;;;;4956965;29;20038;-92
2024/03/24 09:25:14;;;;;;;7.72;2.97;;;8.40;99.90;;;;;;4972728;29;20071;-93
2024/03/24 09:27:40;;;;;;;9.52;3.20;;;8.40;99.90;;;;;;4944371;28;20031;-92
2024/03/24 09:30:16;;;;;;;6.55;3.03;;;8.40;99.90;;;;;;5077702;23;20059;-94
2024/03/24 09:33:02;;;;;;;7.82;2.65;;;8.30;99.90;;;;;;4964787;29;20123;-92
2024/03/24 09:35:31;;;;;;;9.82;3.13;;;8.30;99.90;;;;;;4944545;29;20047;-92
2024/03/24 09:37:57;;;;;;;7.38;2.97;;;8.30;99.90;;;;;;4954096;29;20034;-92
2024/03/24 09:40:28;;;;;;;9.65;3.13;;;8.20;99.90;;;;;;4966217;28;20059;-92
2024/03/24 09:42:57;;;;;;;9.43;3.15;;;8.20;99.90;;;;;;5128182;23;20054;-86
2024/03/24 09:45:32;;;;;;;9.07;3.20;;;8.20;99.90;;;;;;4964640;29;20040;-93
2024/03/24 09:48:00;;;;;;;6.90;2.45;;;8.20;99.90;;;;;;4948276;29;20118;-92
2024/03/24 09:50:26;;;;;;;8.10;2.70;;;8.20;99.90;;;;;;4950982;29;20079;-92
2024/03/24 09:52:54;;;;;;;8.85;2.85;;;8.10;99.90;;;;;;4957601;29;20032;-92
2024/03/24 09:55:27;;;;;;;12.65;3.55;;;8.00;99.90;;;;;;4953024;29;20054;-93
2024/03/24 09:57:55;;;;;;;7.32;1.83;;;7.90;99.90;;;;;;4950814;28;20031;-93
2024/03/24 10:00:21;;;;;;;9.75;2.70;;;7.80;99.90;;;;;;4938958;29;20026;-92
2024/03/24 10:02:47;;;;;;;4.75;1.80;;;7.80;99.90;;;;;;4938872;29;20032;-92
2024/03/24 10:05:13;;;;;;;6.38;1.60;;;7.80;99.90;;;;;;4939251;29;20038;-92
2024/03/24 10:07:48;;;;;;;3.65;1.30;;;7.80;99.90;;;;;;4957412;28;20030;-92
2024/03/24 10:10:25;;;;;;;3.60;1.05;;;7.80;99.90;;;;;;4951088;29;20030;-93
2024/03/24 10:12:58;;;;;;;6.45;1.05;;;7.80;99.90;;;;;;4948278;29;20035;-92
2024/03/24 10:15:30;;;;;;;5.43;1.63;;;7.80;99.90;;;;;;4955530;29;20020;-88
2024/03/24 10:18:14;;;;;;;3.13;1.05;;;7.80;99.90;;;;;;4957747;28;20027;-92
2024/03/24 10:20:48;;;;;;;5.57;1.90;;;7.90;99.90;;;;;;5226528;23;20285;-85
2024/03/24 10:23:14;;;;;;;4.15;1.33;;;7.90;99.90;;;;;;4943917;28;20036;-89
2024/03/24 10:25:48;;;;;;;5.50;1.83;;;8.00;99.90;;;;;;4942848;28;20047;-92
2024/03/24 10:28:25;;;;;;;5.45;1.38;;;8.20;99.90;;;;;;4952174;29;20028;-92
2024/03/24 10:30:53;;;;;;;3.63;1.70;;;8.30;99.90;;;;;;4954303;29;20032;-94
2024/03/24 10:33:19;;;;;;;6.75;1.50;;;8.40;99.90;;;;;;4927390;29;20115;-92
2024/03/24 10:35:45;;;;;;;5.72;1.30;;;8.40;99.90;;;;;;4908026;29;20051;-92
2024/03/24 10:38:11;;;;;;;5.10;1.42;;;8.50;99.90;;;;;;4902404;29;20032;-92
2024/03/24 10:40:39;;;;;;;6.93;1.83;;;8.50;99.90;;;;;;4915860;29;20039;-93
2024/03/24 10:43:09;;;;;;;8.05;1.75;;;8.50;99.90;;;;;;4956770;29;20118;-92
2024/03/24 10:45:35;;;;;;;5.80;1.45;;;8.50;99.90;;;;;;4947415;29;20020;-93
2024/03/24 10:48:03;;;;;;;5.03;1.60;;;8.50;99.90;;;;;;4952763;28;20027;-91
2024/03/24 10:50:29;;;;;;;10.77;2.30;;;8.60;99.90;;;;;;4927343;29;20028;-93
2024/03/24 10:53:02;;;;;;;5.75;1.48;;;8.60;99.90;;;;;;4924785;29;20030;-92
2024/03/24 10:55:29;;;;;;;6.38;1.75;;;8.70;99.90;;;;;;4923256;29;20036;-92
2024/03/24 10:57:58;;;;;;;6.10;1.80;;;8.70;99.90;;;;;;4916027;29;20039;-92
2024/03/24 11:00:31;;;;;;;6.22;1.90;;;8.70;99.90;;;;;;4940140;29;20074;-93
2024/03/24 11:02:58;;;;;;;6.30;1.40;;;8.80;99.90;;;;;;4927708;29;20044;-93
2024/03/24 11:05:25;;;;;;;5.60;1.70;;;8.90;99.90;;;;;;4942125;29;20036;-93
2024/03/24 11:07:52;;;;;;;4.18;1.50;;;8.90;99.90;;;;;;4922805;29;20030;-93
2024/03/24 11:10:22;;;;;;;5.13;1.98;;;8.90;99.90;;;;;;4925427;29;20034;-93
2024/03/24 11:12:49;;;;;;;6.63;1.88;;;9.00;99.90;;;;;;4908328;29;20028;-92
2024/03/24 11:15:24;;;;;;;9.13;1.90;;;9.10;99.90;;;;;;4933326;29;20028;-93
2024/03/24 11:17:52;;;;;;;6.28;1.90;;;9.10;99.90;;;;;;4926086;29;20040;-92
2024/03/24 11:20:30;;;;;;;6.80;2.15;;;9.10;99.90;;;;;;4931510;29;20032;-92
2024/03/24 11:23:00;;;;;;;7.07;1.98;;;9.10;99.90;;;;;;4950158;29;20056;-93
2024/03/24 11:25:56;;;;;;;8.63;2.20;;;9.20;99.90;;;;;;4932637;29;20024;-93
2024/03/24 11:28:48;;;;;;;8.55;1.90;;;9.20;99.90;;;;;;4962460;29;20027;-93
2024/03/24 11:31:20;;;;;;;7.45;1.83;;;9.30;99.90;;;;;;4946234;29;20051;-92
2024/03/24 11:34:15;;;;;;;;;;;;;;;;;;;;;
2024/03/24 11:36:43;;;;;;;9.15;2.47;;;9.50;99.90;;;;;;4945712;29;20118;-92
2024/03/24 11:39:12;;;;;;;6.82;2.20;;;9.60;99.90;;;;;;4947434;29;20031;-92
2024/03/24 11:41:53;;;;;;;10.05;2.65;;;9.70;99.90;;;;;;4926391;29;20024;-92
2024/03/24 11:44:21;;;;;;;;;;;9.80;99.90;;;;;;4933182;29;20451;-93
2024/03/24 11:47:00;;;;;;;13.95;2.90;;;9.70;99.90;;;;;;4936517;29;19938;-91
2024/03/24 11:49:36;;;;;;;6.68;2.42;;;9.70;99.90;;;;;;4933755;28;20040;-87
2024/03/24 11:52:17;;;;;;;7.80;2.38;;;9.60;99.90;;;;;;4942335;28;20032;-87
2024/03/24 11:54:56;;;;;;;7.03;2.30;;;9.70;99.90;;;;;;4989010;23;20076;-92
2024/03/24 11:57:28;;;;;;;9.40;3.35;;;9.70;99.90;;;;;;4972177;28;20034;-92
2024/03/24 12:00:04;;;;;;;7.82;3.08;;;9.70;99.90;;;;;;4969416;28;20023;-92
2024/03/24 12:02:36;;;;;;;8.85;2.75;;;9.60;99.90;;;;;;4967617;29;20023;-92
2024/03/24 12:05:07;;;;;;;9.15;3.40;;;9.60;99.90;;;;;;4974023;28;20038;-93
2024/03/24 12:07:39;;;;;;;11.13;2.75;;;9.60;99.90;;;;;;4964425;28;20023;-92
2024/03/24 12:10:06;;;;;;;7.10;2.65;;;9.60;99.90;;;;;;4964457;29;20034;-92
2024/03/24 12:12:32;;;;;;;7.03;2.35;;;9.50;99.90;;;;;;4960165;28;20528;-91
2024/03/24 12:15:03;;;;;;;8.15;2.15;;;9.40;99.90;;;;;;4973202;28;20042;-86
2024/03/24 12:17:31;;;;;;;7.15;2.10;;;9.40;99.90;;;;;;4963664;28;20031;-92
2024/03/24 12:19:57;;;;;;;9.20;2.33;;;9.40;99.90;;;;;;4954623;28;20031;-91
2024/03/24 12:22:23;;;;;;;9.15;2.42;;;9.40;99.90;;;;;;4965733;28;20102;-92
2024/03/24 12:24:52;;;;;;;6.25;1.70;;;9.50;99.90;;;;;;4962405;29;20023;-93
2024/03/24 12:27:20;;;;;;;8.57;2.10;;;9.40;99.90;;;;;;4961861;29;20027;-92
2024/03/24 12:30:01;;;;;;;8.75;2.17;;;9.40;99.90;;;;;;4959639;28;20034;-92
2024/03/24 12:32:33;;;;;;;7.90;2.10;;;9.40;99.90;;;;;;4961753;29;20035;-93
2024/03/24 12:35:00;;;;;;;7.40;1.83;;;9.40;99.90;;;;;;4959381;29;20090;-92
2024/03/24 12:37:26;;;;;;;7.57;2.10;;;9.40;99.90;;;;;;4959629;29;20026;-92
2024/03/24 12:39:51;;;;;;;7.45;1.70;;;9.50;99.90;;;;;;4944860;29;20035;-91
2024/03/24 12:42:17;;;;;;;11.38;2.50;;;9.50;99.90;;;;;;4966005;29;20039;-92
2024/03/24 12:44:43;;;;;;;9.35;2.53;;;9.60;99.90;;;;;;4975715;28;20046;-92
2024/03/24 12:47:16;;;;;;;8.60;1.98;;;9.70;99.90;;;;;;4965124;28;20031;-92
2024/03/24 12:49:42;;;;;;;8.27;2.28;;;9.70;99.90;;;;;;4955599;29;20091;-93
2024/03/24 12:52:08;;;;;;;10.13;2.00;;;9.80;99.90;;;;;;4936409;29;20109;-92
2024/03/24 12:54:35;;;;;;;7.13;1.95;;;9.80;99.90;;;;;;4969734;28;20055;-92
2024/03/24 12:57:01;;;;;;;9.73;2.65;;;9.80;99.90;;;;;;4959591;29;20061;-93
2024/03/24 12:59:27;;;;;;;6.25;1.90;;;9.90;99.90;;;;;;4960747;29;20040;-93
2024/03/24 13:01:53;;;;;;;10.00;2.30;;;9.90;99.90;;;;;;4961047;29;20039;-92
2024/03/24 13:04:20;;;;;;;8.43;2.20;;;9.90;99.90;;;;;;4960565;29;20027;-93
2024/03/24 13:06:51;;;;;;;5.72;1.90;;;9.90;99.90;;;;;;4959980;29;20042;-92
2024/03/24 13:09:17;;;;;;;8.10;2.10;;;9.90;99.90;;;;;;4964411;29;20082;-93
2024/03/24 13:11:43;;;;;;;7.80;2.13;;;9.90;99.90;;;;;;4961855;29;20440;-93
2024/03/24 13:14:09;;;;;;;6.78;2.10;;;9.90;99.90;;;;;;4949070;28;20029;-93
2024/03/24 13:16:57;;;;;;;8.73;2.17;;;9.80;99.90;;;;;;4983376;28;20027;-88
2024/03/24 13:19:28;;;;;;;6.28;1.83;;;9.80;99.90;;;;;;4960462;28;20023;-88
2024/03/24 13:22:03;;;;;;;6.60;1.52;;;9.80;99.90;;;;;;4969588;28;20030;-92
2024/03/24 13:24:44;;;;;;;7.78;1.83;;;9.80;99.90;;;;;;4977228;28;20176;-93
2024/03/24 13:27:26;;;;;;;4.18;1.50;;;9.80;99.90;;;;;;4979535;28;20026;-91
2024/03/24 13:29:52;;;;;;;7.60;2.30;;;9.80;99.90;;;;;;4959794;28;20027;-92
2024/03/24 13:32:18;;;;;;;7.30;2.28;;;9.70;99.90;;;;;;4960359;29;20075;-92
2024/03/24 13:34:44;;;;;;;6.82;1.98;;;9.70;99.90;;;;;;4961406;29;20421;-91
2024/03/24 13:37:32;;;;;;;6.13;2.03;;;9.60;99.90;;;;;;4944590;29;20031;-92
2024/03/24 13:40:10;;;;;;;11.63;2.47;;;9.70;99.90;;;;;;4959950;29;20106;-91
2024/03/24 13:42:52;;;;;;;11.02;2.28;;;9.60;99.90;;;;;;4974051;28;20027;-92
2024/03/24 13:45:26;;;;;;;8.32;2.33;;;9.60;99.90;;;;;;4964889;28;20452;-86
2024/03/24 13:48:12;;;;;;;10.93;2.35;;;9.60;99.90;;;;;;4957314;29;20043;-91
2024/03/24 13:50:40;;;;;;;6.85;1.85;;;9.50;99.90;;;;;;4956110;28;20050;-93
2024/03/24 13:53:07;;;;;;;12.30;2.10;;;9.50;99.90;;;;;;4941100;29;20066;-92
2024/03/24 13:55:34;;;;;;;8.65;1.70;;;9.60;99.90;;;;;;4946902;28;20061;-92
2024/03/24 13:57:59;;;;;;;5.38;1.98;;;9.70;99.90;;;;;;4977460;28;20107;-92
2024/03/24 14:00:25;;;;;;;5.13;1.42;;;9.70;99.90;;;;;;4945919;29;20051;-93
2024/03/24 14:02:51;;;;;;;5.40;1.67;;;9.70;99.90;;;;;;4941341;29;20480;-92
2024/03/24 14:05:20;;;;;;;5.80;1.63;;;9.80;99.90;;;;;;4957939;29;20122;-93
2024/03/24 14:07:46;;;;;;;6.05;1.67;;;9.70;99.90;;;;;;4958379;29;20031;-92
2024/03/24 14:10:11;;;;;;;4.90;1.45;;;9.60;99.90;;;;;;4951766;28;20062;-93
2024/03/24 14:13:08;;;;;;;7.03;2.00;;;9.50;99.90;;;;;;4961616;28;20511;-92
2024/03/24 14:16:08;;;;;;;7.57;1.70;;;9.40;99.90;;;;;;4940342;29;20027;-91
2024/03/24 14:18:49;;;;;;;4.45;1.05;;;9.30;99.90;;;;;;4972958;28;20047;-91
2024/03/24 14:21:20;;;;;;;8.55;1.90;;;9.30;99.90;;;;;;4974741;29;20035;-91
2024/03/24 14:23:59;;;;;;;;;;;9.30;99.90;;;;;;4965366;28;20030;-92
2024/03/24 14:26:27;;;;;;;5.90;1.52;;;9.30;99.90;;;;;;4965529;28;19910;-93
2024/03/24 14:28:52;;;;;;;7.18;1.92;;;9.30;99.90;;;;;;4957503;28;20030;-93
2024/03/24 14:31:21;;;;;;;10.27;2.45;;;9.30;99.90;;;;;;4973631;28;20035;-92
2024/03/24 14:33:47;;;;;;;17.23;5.13;;;9.30;99.90;;;;;;4921186;29;20473;-92
2024/03/24 14:36:18;;;;;;;13.57;4.88;;;9.30;99.90;;;;;;4921834;29;20036;-93
2024/03/24 14:39:09;;;;;;;8.93;3.25;;;9.30;99.90;;;;;;4940281;29;20027;-92
2024/03/24 14:41:42;;;;;;;10.07;2.67;;;9.40;99.90;;;;;;4932523;28;20098;-92
2024/03/24 14:44:08;;;;;;;11.18;2.97;;;9.40;99.90;;;;;;4983051;28;20113;-93
2024/03/24 14:47:06;;;;;;;11.38;2.75;;;9.40;99.90;;;;;;4961723;29;20023;-92
2024/03/24 14:49:32;;;;;;;9.75;2.63;;;9.30;99.90;;;;;;4959320;29;20046;-92
2024/03/24 14:51:58;;;;;;;6.70;2.10;;;9.30;99.90;;;;;;4944439;28;20120;-90
2024/03/24 14:54:24;;;;;;;10.13;2.22;;;9.30;99.90;;;;;;4976102;28;20061;-91
2024/03/24 14:56:50;;;;;;;9.00;2.35;;;9.30;99.90;;;;;;4975169;28;20121;-92
2024/03/24 14:59:16;;;;;;;9.32;2.10;;;9.30;99.90;;;;;;4975145;28;20057;-92
2024/03/24 15:01:42;;;;;;;9.20;2.55;;;9.30;99.90;;;;;;4959846;28;20038;-92
2024/03/24 15:04:09;;;;;;;8.82;3.03;;;9.30;99.90;;;;;;4963517;28;20386;-92
2024/03/24 15:06:35;;;;;;;6.55;2.22;;;9.40;99.90;;;;;;4958163;29;20042;-93
2024/03/24 15:09:00;;;;;;;6.30;1.92;;;9.40;99.90;;;;;;4961417;28;20023;-93
2024/03/24 15:11:26;;;;;;;5.40;1.70;;;9.40;99.90;;;;;;4945178;28;20059;-91
2024/03/24 15:13:52;;;;;;;5.13;1.70;;;9.40;99.90;;;;;;4961720;28;20050;-92
2024/03/24 15:16:18;;;;;;;9.73;1.92;;;9.40;99.90;;;;;;4946400;29;20059;-91
2024/03/24 15:18:43;;;;;;;8.50;1.70;;;9.50;99.90;;;;;;4961353;29;20023;-93
2024/03/24 15:21:12;;;;;;;6.57;1.80;;;9.50;99.90;;;;;;4945039;29;20035;-93
2024/03/24 15:23:37;;;;;;;7.05;1.90;;;9.50;99.90;;;;;;4941573;29;20039;-90
2024/03/24 15:26:03;;;;;;;10.18;2.67;;;9.60;99.90;;;;;;4939670;29;20043;-90
2024/03/24 15:28:31;;;;;;;6.97;2.08;;;9.70;99.90;;;;;;4939073;29;20060;-85
2024/03/24 15:30:57;;;;;;;11.75;2.38;;;9.70;99.90;;;;;;4955547;29;20035;-90
2024/03/24 15:33:24;;;;;;;9.77;2.40;;;9.70;99.90;;;;;;4923761;29;20115;-90
2024/03/24 15:35:50;;;;;;;7.03;1.83;;;9.70;99.90;;;;;;4950959;28;20027;-92
2024/03/24 15:38:16;;;;;;;7.18;1.95;;;9.70;99.90;;;;;;4968488;28;20041;-93